sensor_id;sensor_type;location;lat;lon;timestamp;P1;durP1;ratioP1;P2;durP2;ratioP2
66421;SDS011;53228;51.380;0.098;2024-01-30T00:02:06;32.45;;;10.48;;
66421;SDS011;53228;51.380;0.098;2024-01-30T00:04:34;33.78;;;10.30;;
66421;SDS011;53228;51.380;0.098;2024-01-30T00:07:01;30.17;;;9.57;;
66421;SDS011;53228;51.380;0.098;2024-01-30T00:09:29;20.67;;;9.20;;
66421;SDS011;53228;51.380;0.098;2024-01-30T00:11:56;33.72;;;10.57;;
66421;SDS011;53228;51.380;0.098;2024-01-30T00:14:24;31.85;;;10.55;;
66421;SDS011;53228;51.380;0.098;2024-01-30T00:16:53;36.00;;;10.25;;
66421;SDS011;53228;51.380;0.098;2024-01-30T00:19:24;29.05;;;9.93;;
66421;SDS011;53228;51.380;0.098;2024-01-30T00:21:52;26.00;;;9.70;;
66421;SDS011;53228;51.380;0.098;2024-01-30T00:24:19;25.33;;;9.77;;
66421;SDS011;53228;51.380;0.098;2024-01-30T00:26:47;32.28;;;9.70;;
66421;SDS011;53228;51.380;0.098;2024-01-30T00:29:14;22.63;;;9.15;;
66421;SDS011;53228;51.380;0.098;2024-01-30T00:31:46;28.95;;;9.88;;
66421;SDS011;53228;51.380;0.098;2024-01-30T00:34:14;29.05;;;9.07;;
66421;SDS011;53228;51.380;0.098;2024-01-30T00:36:41;31.38;;;9.52;;
66421;SDS011;53228;51.380;0.098;2024-01-30T00:39:09;23.48;;;9.57;;
66421;SDS011;53228;51.380;0.098;2024-01-30T00:41:37;24.33;;;8.90;;
66421;SDS011;53228;51.380;0.098;2024-01-30T00:44:05;25.70;;;8.85;;
66421;SDS011;53228;51.380;0.098;2024-01-30T00:46:32;24.23;;;8.82;;
66421;SDS011;53228;51.380;0.098;2024-01-30T00:49:00;25.80;;;9.10;;
66421;SDS011;53228;51.380;0.098;2024-01-30T00:51:28;23.58;;;9.05;;
66421;SDS011;53228;51.380;0.098;2024-01-30T00:53:57;25.20;;;8.38;;
66421;SDS011;53228;51.380;0.098;2024-01-30T00:56:24;28.65;;;9.15;;
66421;SDS011;53228;51.380;0.098;2024-01-30T00:58:52;20.63;;;8.45;;
66421;SDS011;53228;51.380;0.098;2024-01-30T01:01:19;22.67;;;8.23;;
66421;SDS011;53228;51.380;0.098;2024-01-30T01:03:47;6.85;;;3.58;;
66421;SDS011;53228;51.380;0.098;2024-01-30T01:06:15;1.58;;;1.38;;
66421;SDS011;53228;51.380;0.098;2024-01-30T01:08:43;1.70;;;1.60;;
66421;SDS011;53228;51.380;0.098;2024-01-30T01:11:11;2.20;;;1.60;;
66421;SDS011;53228;51.380;0.098;2024-01-30T01:13:38;1.77;;;1.30;;
66421;SDS011;53228;51.380;0.098;2024-01-30T01:16:07;1.30;;;1.20;;
66421;SDS011;53228;51.380;0.098;2024-01-30T01:18:34;2.13;;;1.55;;
66421;SDS011;53228;51.380;0.098;2024-01-30T01:21:02;1.85;;;1.25;;
66421;SDS011;53228;51.380;0.098;2024-01-30T01:23:30;2.30;;;1.40;;
66421;SDS011;53228;51.380;0.098;2024-01-30T01:25:57;3.10;;;1.67;;
66421;SDS011;53228;51.380;0.098;2024-01-30T01:28:27;1.67;;;1.35;;
66421;SDS011;53228;51.380;0.098;2024-01-30T01:30:55;3.30;;;2.28;;
66421;SDS011;53228;51.380;0.098;2024-01-30T01:33:26;1.83;;;1.27;;
66421;SDS011;53228;51.380;0.098;2024-01-30T01:35:54;2.45;;;1.58;;
66421;SDS011;53228;51.380;0.098;2024-01-30T01:38:21;2.20;;;1.27;;
66421;SDS011;53228;51.380;0.098;2024-01-30T01:40:49;3.38;;;1.83;;
66421;SDS011;53228;51.380;0.098;2024-01-30T01:43:18;2.78;;;1.63;;
66421;SDS011;53228;51.380;0.098;2024-01-30T01:45:46;2.25;;;1.98;;
66421;SDS011;53228;51.380;0.098;2024-01-30T01:48:14;3.22;;;2.00;;
66421;SDS011;53228;51.380;0.098;2024-01-30T01:50:42;3.22;;;2.15;;
66421;SDS011;53228;51.380;0.098;2024-01-30T01:53:10;3.28;;;2.00;;
66421;SDS011;53228;51.380;0.098;2024-01-30T01:55:39;2.58;;;1.83;;
66421;SDS011;53228;51.380;0.098;2024-01-30T01:58:07;5.97;;;2.40;;
66421;SDS011;53228;51.380;0.098;2024-01-30T02:00:36;2.92;;;1.70;;
66421;SDS011;53228;51.380;0.098;2024-01-30T02:03:08;3.45;;;2.50;;
66421;SDS011;53228;51.380;0.098;2024-01-30T02:05:39;3.55;;;2.40;;
66421;SDS011;53228;51.380;0.098;2024-01-30T02:08:09;3.85;;;2.60;;
66421;SDS011;53228;51.380;0.098;2024-01-30T02:10:37;3.72;;;2.30;;
66421;SDS011;53228;51.380;0.098;2024-01-30T02:13:04;5.15;;;2.72;;
66421;SDS011;53228;51.380;0.098;2024-01-30T02:15:32;2.40;;;1.55;;
66421;SDS011;53228;51.380;0.098;2024-01-30T02:18:00;2.22;;;1.60;;
66421;SDS011;53228;51.380;0.098;2024-01-30T02:20:28;2.40;;;1.60;;
66421;SDS011;53228;51.380;0.098;2024-01-30T02:22:58;2.00;;;1.60;;
66421;SDS011;53228;51.380;0.098;2024-01-30T02:25:35;1.83;;;1.50;;
66421;SDS011;53228;51.380;0.098;2024-01-30T02:28:05;2.88;;;2.30;;
66421;SDS011;53228;51.380;0.098;2024-01-30T02:30:33;5.30;;;2.80;;
66421;SDS011;53228;51.380;0.098;2024-01-30T02:33:01;3.53;;;2.75;;
66421;SDS011;53228;51.380;0.098;2024-01-30T02:35:28;3.30;;;2.72;;
66421;SDS011;53228;51.380;0.098;2024-01-30T02:37:56;2.13;;;1.63;;
66421;SDS011;53228;51.380;0.098;2024-01-30T02:40:24;3.05;;;1.63;;
66421;SDS011;53228;51.380;0.098;2024-01-30T02:42:52;3.38;;;1.35;;
66421;SDS011;53228;51.380;0.098;2024-01-30T02:45:20;2.13;;;1.13;;
66421;SDS011;53228;51.380;0.098;2024-01-30T02:47:47;3.55;;;2.13;;
66421;SDS011;53228;51.380;0.098;2024-01-30T02:50:15;3.15;;;1.90;;
66421;SDS011;53228;51.380;0.098;2024-01-30T02:52:43;3.05;;;2.13;;
66421;SDS011;53228;51.380;0.098;2024-01-30T02:55:11;4.15;;;2.10;;
66421;SDS011;53228;51.380;0.098;2024-01-30T02:57:40;6.43;;;2.47;;
66421;SDS011;53228;51.380;0.098;2024-01-30T03:00:07;4.57;;;2.25;;
66421;SDS011;53228;51.380;0.098;2024-01-30T03:02:36;4.30;;;2.20;;
66421;SDS011;53228;51.380;0.098;2024-01-30T03:05:05;4.55;;;2.28;;
66421;SDS011;53228;51.380;0.098;2024-01-30T03:07:33;6.70;;;2.00;;
66421;SDS011;53228;51.380;0.098;2024-01-30T03:10:01;4.65;;;1.80;;
66421;SDS011;53228;51.380;0.098;2024-01-30T03:12:29;1.55;;;1.02;;
66421;SDS011;53228;51.380;0.098;2024-01-30T03:14:57;3.10;;;1.80;;
66421;SDS011;53228;51.380;0.098;2024-01-30T03:17:24;3.08;;;1.10;;
66421;SDS011;53228;51.380;0.098;2024-01-30T03:19:52;5.10;;;1.98;;
66421;SDS011;53228;51.380;0.098;2024-01-30T03:22:20;7.00;;;1.80;;
66421;SDS011;53228;51.380;0.098;2024-01-30T03:24:47;1.63;;;1.38;;
66421;SDS011;53228;51.380;0.098;2024-01-30T03:27:15;4.38;;;1.50;;
66421;SDS011;53228;51.380;0.098;2024-01-30T03:29:43;4.50;;;2.30;;
66421;SDS011;53228;51.380;0.098;2024-01-30T03:32:10;7.63;;;1.83;;
66421;SDS011;53228;51.380;0.098;2024-01-30T03:34:38;5.80;;;2.15;;
66421;SDS011;53228;51.380;0.098;2024-01-30T03:37:07;10.13;;;2.17;;
66421;SDS011;53228;51.380;0.098;2024-01-30T03:39:34;4.10;;;1.92;;
66421;SDS011;53228;51.380;0.098;2024-01-30T03:42:03;5.03;;;2.85;;
66421;SDS011;53228;51.380;0.098;2024-01-30T03:44:31;8.13;;;1.95;;
66421;SDS011;53228;51.380;0.098;2024-01-30T03:46:59;2.50;;;1.42;;
66421;SDS011;53228;51.380;0.098;2024-01-30T03:49:26;2.72;;;1.17;;
66421;SDS011;53228;51.380;0.098;2024-01-30T03:51:54;6.82;;;1.40;;
66421;SDS011;53228;51.380;0.098;2024-01-30T03:54:22;5.10;;;1.25;;
66421;SDS011;53228;51.380;0.098;2024-01-30T03:56:49;5.25;;;1.50;;
66421;SDS011;53228;51.380;0.098;2024-01-30T03:59:17;8.90;;;2.05;;
66421;SDS011;53228;51.380;0.098;2024-01-30T04:01:52;4.50;;;1.60;;
66421;SDS011;53228;51.380;0.098;2024-01-30T04:06:47;6.60;;;1.35;;
66421;SDS011;53228;51.380;0.098;2024-01-30T04:09:15;4.68;;;1.17;;
66421;SDS011;53228;51.380;0.098;2024-01-30T04:11:43;4.68;;;2.03;;
66421;SDS011;53228;51.380;0.098;2024-01-30T04:14:11;0.90;;;0.85;;
66421;SDS011;53228;51.380;0.098;2024-01-30T04:16:38;4.13;;;1.38;;
66421;SDS011;53228;51.380;0.098;2024-01-30T04:19:06;4.35;;;1.88;;
66421;SDS011;53228;51.380;0.098;2024-01-30T04:21:33;7.40;;;2.28;;
66421;SDS011;53228;51.380;0.098;2024-01-30T04:24:01;5.65;;;1.10;;
66421;SDS011;53228;51.380;0.098;2024-01-30T04:26:29;5.60;;;1.40;;
66421;SDS011;53228;51.380;0.098;2024-01-30T04:28:56;5.68;;;1.10;;
66421;SDS011;53228;51.380;0.098;2024-01-30T04:31:24;4.05;;;1.52;;
66421;SDS011;53228;51.380;0.098;2024-01-30T04:33:52;3.10;;;1.10;;
66421;SDS011;53228;51.380;0.098;2024-01-30T04:36:20;9.18;;;2.30;;
66421;SDS011;53228;51.380;0.098;2024-01-30T04:38:47;2.42;;;1.23;;
66421;SDS011;53228;51.380;0.098;2024-01-30T04:41:15;5.68;;;2.28;;
66421;SDS011;53228;51.380;0.098;2024-01-30T04:43:42;4.75;;;2.15;;
66421;SDS011;53228;51.380;0.098;2024-01-30T04:46:10;4.65;;;1.67;;
66421;SDS011;53228;51.380;0.098;2024-01-30T04:48:38;12.65;;;1.77;;
66421;SDS011;53228;51.380;0.098;2024-01-30T04:51:05;5.13;;;1.85;;
66421;SDS011;53228;51.380;0.098;2024-01-30T04:53:33;7.03;;;2.20;;
66421;SDS011;53228;51.380;0.098;2024-01-30T04:56:01;10.80;;;2.20;;
66421;SDS011;53228;51.380;0.098;2024-01-30T04:58:28;6.70;;;3.05;;
66421;SDS011;53228;51.380;0.098;2024-01-30T05:00:56;5.85;;;1.67;;
66421;SDS011;53228;51.380;0.098;2024-01-30T05:03:25;9.40;;;2.47;;
66421;SDS011;53228;51.380;0.098;2024-01-30T05:05:52;8.02;;;2.53;;
66421;SDS011;53228;51.380;0.098;2024-01-30T05:08:20;6.68;;;1.73;;
66421;SDS011;53228;51.380;0.098;2024-01-30T05:10:48;2.40;;;1.63;;
66421;SDS011;53228;51.380;0.098;2024-01-30T05:13:15;3.13;;;1.55;;
66421;SDS011;53228;51.380;0.098;2024-01-30T05:15:43;11.02;;;2.60;;
66421;SDS011;53228;51.380;0.098;2024-01-30T05:18:11;3.95;;;1.67;;
66421;SDS011;53228;51.380;0.098;2024-01-30T05:20:39;5.07;;;2.00;;
66421;SDS011;53228;51.380;0.098;2024-01-30T05:23:06;4.03;;;1.25;;
66421;SDS011;53228;51.380;0.098;2024-01-30T05:25:34;3.67;;;1.25;;
66421;SDS011;53228;51.380;0.098;2024-01-30T05:28:02;6.38;;;0.70;;
66421;SDS011;53228;51.380;0.098;2024-01-30T05:30:30;3.22;;;0.80;;
66421;SDS011;53228;51.380;0.098;2024-01-30T05:32:57;3.20;;;0.90;;
66421;SDS011;53228;51.380;0.098;2024-01-30T05:35:25;3.45;;;1.10;;
66421;SDS011;53228;51.380;0.098;2024-01-30T05:37:52;3.30;;;1.13;;
66421;SDS011;53228;51.380;0.098;2024-01-30T05:40:20;3.58;;;1.65;;
66421;SDS011;53228;51.380;0.098;2024-01-30T05:42:48;4.30;;;1.08;;
66421;SDS011;53228;51.380;0.098;2024-01-30T05:45:16;5.35;;;1.38;;
66421;SDS011;53228;51.380;0.098;2024-01-30T05:47:43;2.33;;;1.00;;
66421;SDS011;53228;51.380;0.098;2024-01-30T05:50:11;9.38;;;0.98;;
66421;SDS011;53228;51.380;0.098;2024-01-30T05:52:39;4.28;;;0.90;;
66421;SDS011;53228;51.380;0.098;2024-01-30T05:55:06;6.63;;;0.75;;
66421;SDS011;53228;51.380;0.098;2024-01-30T05:57:34;3.40;;;0.82;;
66421;SDS011;53228;51.380;0.098;2024-01-30T06:00:03;4.38;;;1.08;;
66421;SDS011;53228;51.380;0.098;2024-01-30T06:02:34;3.45;;;1.70;;
66421;SDS011;53228;51.380;0.098;2024-01-30T06:05:02;9.98;;;1.27;;
66421;SDS011;53228;51.380;0.098;2024-01-30T06:07:31;4.20;;;1.05;;
66421;SDS011;53228;51.380;0.098;2024-01-30T06:10:03;3.25;;;1.30;;
66421;SDS011;53228;51.380;0.098;2024-01-30T06:12:31;2.75;;;0.90;;
66421;SDS011;53228;51.380;0.098;2024-01-30T06:14:58;4.68;;;1.00;;
66421;SDS011;53228;51.380;0.098;2024-01-30T06:17:26;8.18;;;1.05;;
66421;SDS011;53228;51.380;0.098;2024-01-30T06:19:54;7.13;;;1.50;;
66421;SDS011;53228;51.380;0.098;2024-01-30T06:22:22;8.00;;;1.67;;
66421;SDS011;53228;51.380;0.098;2024-01-30T06:24:50;4.55;;;1.27;;
66421;SDS011;53228;51.380;0.098;2024-01-30T06:27:18;4.65;;;1.10;;
66421;SDS011;53228;51.380;0.098;2024-01-30T06:29:45;4.47;;;0.85;;
66421;SDS011;53228;51.380;0.098;2024-01-30T06:32:13;4.25;;;0.88;;
66421;SDS011;53228;51.380;0.098;2024-01-30T06:34:41;4.22;;;1.13;;
66421;SDS011;53228;51.380;0.098;2024-01-30T06:37:11;2.53;;;0.80;;
66421;SDS011;53228;51.380;0.098;2024-01-30T06:39:39;4.15;;;0.88;;
66421;SDS011;53228;51.380;0.098;2024-01-30T06:42:07;4.65;;;1.10;;
66421;SDS011;53228;51.380;0.098;2024-01-30T06:44:34;3.88;;;0.82;;
66421;SDS011;53228;51.380;0.098;2024-01-30T06:47:02;6.93;;;1.25;;
66421;SDS011;53228;51.380;0.098;2024-01-30T06:49:30;0.93;;;0.85;;
66421;SDS011;53228;51.380;0.098;2024-01-30T06:51:58;4.88;;;1.55;;
66421;SDS011;53228;51.380;0.098;2024-01-30T06:54:26;5.47;;;1.20;;
66421;SDS011;53228;51.380;0.098;2024-01-30T06:56:54;2.83;;;1.15;;
66421;SDS011;53228;51.380;0.098;2024-01-30T06:59:21;3.63;;;1.25;;
66421;SDS011;53228;51.380;0.098;2024-01-30T07:01:49;4.15;;;1.73;;
66421;SDS011;53228;51.380;0.098;2024-01-30T07:04:17;7.18;;;2.42;;
66421;SDS011;53228;51.380;0.098;2024-01-30T07:06:45;4.60;;;2.33;;
66421;SDS011;53228;51.380;0.098;2024-01-30T07:09:13;7.05;;;1.90;;
66421;SDS011;53228;51.380;0.098;2024-01-30T07:11:41;5.28;;;1.67;;
66421;SDS011;53228;51.380;0.098;2024-01-30T07:14:09;4.22;;;1.55;;
66421;SDS011;53228;51.380;0.098;2024-01-30T07:16:37;3.10;;;1.45;;
66421;SDS011;53228;51.380;0.098;2024-01-30T07:19:04;4.60;;;2.58;;
66421;SDS011;53228;51.380;0.098;2024-01-30T07:21:32;6.13;;;3.00;;
66421;SDS011;53228;51.380;0.098;2024-01-30T07:24:00;14.73;;;3.63;;
66421;SDS011;53228;51.380;0.098;2024-01-30T07:26:27;8.57;;;4.15;;
66421;SDS011;53228;51.380;0.098;2024-01-30T07:28:58;11.10;;;4.97;;
66421;SDS011;53228;51.380;0.098;2024-01-30T07:31:25;11.35;;;4.63;;
66421;SDS011;53228;51.380;0.098;2024-01-30T07:33:56;13.07;;;4.78;;
66421;SDS011;53228;51.380;0.098;2024-01-30T07:36:24;8.75;;;3.95;;
66421;SDS011;53228;51.380;0.098;2024-01-30T07:38:51;10.93;;;4.35;;
66421;SDS011;53228;51.380;0.098;2024-01-30T07:41:21;4.15;;;2.78;;
66421;SDS011;53228;51.380;0.098;2024-01-30T07:43:50;9.02;;;4.07;;
66421;SDS011;53228;51.380;0.098;2024-01-30T07:46:18;7.35;;;3.50;;
66421;SDS011;53228;51.380;0.098;2024-01-30T07:48:46;8.43;;;5.10;;
66421;SDS011;53228;51.380;0.098;2024-01-30T07:51:21;10.45;;;4.82;;
66421;SDS011;53228;51.380;0.098;2024-01-30T07:53:49;9.40;;;4.50;;
66421;SDS011;53228;51.380;0.098;2024-01-30T07:56:18;8.10;;;4.30;;
66421;SDS011;53228;51.380;0.098;2024-01-30T07:58:46;7.93;;;5.43;;
66421;SDS011;53228;51.380;0.098;2024-01-30T08:01:16;11.57;;;5.38;;
66421;SDS011;53228;51.380;0.098;2024-01-30T08:03:44;10.23;;;5.32;;
66421;SDS011;53228;51.380;0.098;2024-01-30T08:06:12;7.55;;;4.93;;
66421;SDS011;53228;51.380;0.098;2024-01-30T08:08:39;8.55;;;4.40;;
66421;SDS011;53228;51.380;0.098;2024-01-30T08:11:07;3.13;;;2.75;;
66421;SDS011;53228;51.380;0.098;2024-01-30T08:13:36;4.78;;;2.47;;
66421;SDS011;53228;51.380;0.098;2024-01-30T08:16:04;12.95;;;4.05;;
66421;SDS011;53228;51.380;0.098;2024-01-30T08:18:32;7.43;;;4.07;;
66421;SDS011;53228;51.380;0.098;2024-01-30T08:21:00;4.82;;;2.45;;
66421;SDS011;53228;51.380;0.098;2024-01-30T08:23:27;5.93;;;3.38;;
66421;SDS011;53228;51.380;0.098;2024-01-30T08:25:55;4.50;;;1.73;;
66421;SDS011;53228;51.380;0.098;2024-01-30T08:28:23;5.68;;;2.13;;
66421;SDS011;53228;51.380;0.098;2024-01-30T08:30:50;8.90;;;2.22;;
66421;SDS011;53228;51.380;0.098;2024-01-30T08:33:18;2.28;;;1.38;;
66421;SDS011;53228;51.380;0.098;2024-01-30T08:35:46;5.30;;;1.58;;
66421;SDS011;53228;51.380;0.098;2024-01-30T08:38:13;9.85;;;1.52;;
66421;SDS011;53228;51.380;0.098;2024-01-30T08:40:41;6.70;;;2.00;;
66421;SDS011;53228;51.380;0.098;2024-01-30T08:43:09;1.75;;;1.08;;
66421;SDS011;53228;51.380;0.098;2024-01-30T08:45:37;4.40;;;1.92;;
66421;SDS011;53228;51.380;0.098;2024-01-30T08:48:05;6.40;;;2.80;;
66421;SDS011;53228;51.380;0.098;2024-01-30T08:50:33;4.95;;;2.20;;
66421;SDS011;53228;51.380;0.098;2024-01-30T08:53:01;5.78;;;2.72;;
66421;SDS011;53228;51.380;0.098;2024-01-30T08:55:29;3.90;;;2.05;;
66421;SDS011;53228;51.380;0.098;2024-01-30T08:57:57;3.83;;;2.22;;
66421;SDS011;53228;51.380;0.098;2024-01-30T09:00:25;4.03;;;2.10;;
66421;SDS011;53228;51.380;0.098;2024-01-30T09:02:53;9.27;;;3.47;;
66421;SDS011;53228;51.380;0.098;2024-01-30T09:05:21;6.72;;;3.30;;
66421;SDS011;53228;51.380;0.098;2024-01-30T09:07:49;2.45;;;1.70;;
66421;SDS011;53228;51.380;0.098;2024-01-30T09:10:16;4.95;;;2.50;;
66421;SDS011;53228;51.380;0.098;2024-01-30T09:12:47;3.58;;;1.70;;
66421;SDS011;53228;51.380;0.098;2024-01-30T09:15:17;3.88;;;1.83;;
66421;SDS011;53228;51.380;0.098;2024-01-30T09:17:46;5.03;;;1.45;;
66421;SDS011;53228;51.380;0.098;2024-01-30T09:20:13;3.45;;;0.98;;
66421;SDS011;53228;51.380;0.098;2024-01-30T09:22:41;1.42;;;1.27;;
66421;SDS011;53228;51.380;0.098;2024-01-30T09:25:09;7.25;;;1.90;;
66421;SDS011;53228;51.380;0.098;2024-01-30T09:27:37;8.35;;;1.85;;
66421;SDS011;53228;51.380;0.098;2024-01-30T09:30:05;2.13;;;1.10;;
66421;SDS011;53228;51.380;0.098;2024-01-30T09:32:33;1.92;;;1.05;;
66421;SDS011;53228;51.380;0.098;2024-01-30T09:35:01;3.90;;;1.50;;
66421;SDS011;53228;51.380;0.098;2024-01-30T09:37:29;6.35;;;1.30;;
66421;SDS011;53228;51.380;0.098;2024-01-30T09:39:56;2.75;;;0.98;;
66421;SDS011;53228;51.380;0.098;2024-01-30T09:42:34;1.85;;;0.88;;
66421;SDS011;53228;51.380;0.098;2024-01-30T09:45:05;4.63;;;0.80;;
66421;SDS011;53228;51.380;0.098;2024-01-30T09:47:43;1.30;;;0.60;;
66421;SDS011;53228;51.380;0.098;2024-01-30T09:50:12;4.55;;;0.90;;
66421;SDS011;53228;51.380;0.098;2024-01-30T09:52:41;5.10;;;0.80;;
66421;SDS011;53228;51.380;0.098;2024-01-30T09:55:10;2.80;;;0.98;;
66421;SDS011;53228;51.380;0.098;2024-01-30T09:57:38;5.50;;;1.00;;
66421;SDS011;53228;51.380;0.098;2024-01-30T10:00:06;3.92;;;0.75;;
66421;SDS011;53228;51.380;0.098;2024-01-30T10:02:39;5.57;;;1.30;;
66421;SDS011;53228;51.380;0.098;2024-01-30T10:05:07;2.85;;;2.10;;
66421;SDS011;53228;51.380;0.098;2024-01-30T10:07:36;2.03;;;1.52;;
66421;SDS011;53228;51.380;0.098;2024-01-30T10:10:05;2.88;;;1.60;;
66421;SDS011;53228;51.380;0.098;2024-01-30T10:12:34;3.78;;;1.42;;
66421;SDS011;53228;51.380;0.098;2024-01-30T10:15:01;1.33;;;0.80;;
66421;SDS011;53228;51.380;0.098;2024-01-30T10:17:30;4.47;;;0.80;;
66421;SDS011;53228;51.380;0.098;2024-01-30T10:20:00;2.92;;;1.13;;
66421;SDS011;53228;51.380;0.098;2024-01-30T10:22:32;1.60;;;1.10;;
66421;SDS011;53228;51.380;0.098;2024-01-30T10:25:00;3.47;;;1.52;;
66421;SDS011;53228;51.380;0.098;2024-01-30T10:27:32;9.43;;;1.38;;
66421;SDS011;53228;51.380;0.098;2024-01-30T10:30:00;4.32;;;1.83;;
66421;SDS011;53228;51.380;0.098;2024-01-30T10:32:29;4.65;;;1.80;;
66421;SDS011;53228;51.380;0.098;2024-01-30T10:34:57;5.00;;;2.20;;
66421;SDS011;53228;51.380;0.098;2024-01-30T10:37:25;3.47;;;1.98;;
66421;SDS011;53228;51.380;0.098;2024-01-30T10:39:54;5.20;;;2.30;;
66421;SDS011;53228;51.380;0.098;2024-01-30T10:42:26;2.35;;;1.25;;
66421;SDS011;53228;51.380;0.098;2024-01-30T10:47:48;3.08;;;1.65;;
66421;SDS011;53228;51.380;0.098;2024-01-30T10:50:17;4.15;;;1.90;;
66421;SDS011;53228;51.380;0.098;2024-01-30T10:52:45;3.97;;;1.70;;
66421;SDS011;53228;51.380;0.098;2024-01-30T10:55:14;2.70;;;1.45;;
66421;SDS011;53228;51.380;0.098;2024-01-30T10:57:43;3.03;;;1.70;;
66421;SDS011;53228;51.380;0.098;2024-01-30T11:00:11;6.57;;;2.63;;
66421;SDS011;53228;51.380;0.098;2024-01-30T11:02:43;2.50;;;1.42;;
66421;SDS011;53228;51.380;0.098;2024-01-30T11:05:12;4.60;;;1.52;;
66421;SDS011;53228;51.380;0.098;2024-01-30T11:07:42;2.67;;;1.60;;
66421;SDS011;53228;51.380;0.098;2024-01-30T11:10:11;3.13;;;1.13;;
66421;SDS011;53228;51.380;0.098;2024-01-30T11:12:42;4.85;;;1.40;;
66421;SDS011;53228;51.380;0.098;2024-01-30T11:15:14;1.30;;;1.20;;
66421;SDS011;53228;51.380;0.098;2024-01-30T11:20:19;5.47;;;1.52;;
66421;SDS011;53228;51.380;0.098;2024-01-30T11:23:00;2.03;;;1.05;;
66421;SDS011;53228;51.380;0.098;2024-01-30T11:25:34;7.28;;;1.80;;
66421;SDS011;53228;51.380;0.098;2024-01-30T11:28:03;3.65;;;1.35;;
66421;SDS011;53228;51.380;0.098;2024-01-30T11:30:31;5.57;;;1.92;;
66421;SDS011;53228;51.380;0.098;2024-01-30T11:33:06;6.32;;;2.20;;
66421;SDS011;53228;51.380;0.098;2024-01-30T11:35:36;7.90;;;2.17;;
66421;SDS011;53228;51.380;0.098;2024-01-30T11:38:09;5.65;;;2.10;;
66421;SDS011;53228;51.380;0.098;2024-01-30T11:40:38;3.42;;;1.70;;
66421;SDS011;53228;51.380;0.098;2024-01-30T11:43:08;3.08;;;1.70;;
66421;SDS011;53228;51.380;0.098;2024-01-30T11:45:36;5.43;;;1.80;;
66421;SDS011;53228;51.380;0.098;2024-01-30T11:48:04;2.92;;;1.65;;
66421;SDS011;53228;51.380;0.098;2024-01-30T11:50:34;3.78;;;1.90;;
66421;SDS011;53228;51.380;0.098;2024-01-30T11:53:02;2.72;;;1.63;;
66421;SDS011;53228;51.380;0.098;2024-01-30T11:55:31;2.63;;;1.50;;
66421;SDS011;53228;51.380;0.098;2024-01-30T11:58:01;3.55;;;1.23;;
66421;SDS011;53228;51.380;0.098;2024-01-30T12:00:30;1.02;;;0.85;;
66421;SDS011;53228;51.380;0.098;2024-01-30T12:02:58;2.63;;;1.20;;
66421;SDS011;53228;51.380;0.098;2024-01-30T12:05:28;1.10;;;0.85;;
66421;SDS011;53228;51.380;0.098;2024-01-30T12:07:56;2.95;;;1.30;;
66421;SDS011;53228;51.380;0.098;2024-01-30T12:10:27;1.10;;;0.95;;
66421;SDS011;53228;51.380;0.098;2024-01-30T12:12:56;8.13;;;1.50;;
66421;SDS011;53228;51.380;0.098;2024-01-30T12:15:24;2.50;;;0.90;;
66421;SDS011;53228;51.380;0.098;2024-01-30T12:17:52;2.03;;;1.10;;
66421;SDS011;53228;51.380;0.098;2024-01-30T12:20:32;5.22;;;1.30;;
66421;SDS011;53228;51.380;0.098;2024-01-30T12:23:00;3.08;;;1.20;;
66421;SDS011;53228;51.380;0.098;2024-01-30T12:25:27;2.00;;;1.30;;
66421;SDS011;53228;51.380;0.098;2024-01-30T12:27:55;6.00;;;1.27;;
66421;SDS011;53228;51.380;0.098;2024-01-30T12:30:23;3.47;;;1.33;;
66421;SDS011;53228;51.380;0.098;2024-01-30T12:32:50;2.88;;;1.38;;
66421;SDS011;53228;51.380;0.098;2024-01-30T12:35:19;2.42;;;1.23;;
66421;SDS011;53228;51.380;0.098;2024-01-30T12:37:48;1.35;;;1.15;;
66421;SDS011;53228;51.380;0.098;2024-01-30T12:40:17;3.90;;;1.40;;
66421;SDS011;53228;51.380;0.098;2024-01-30T12:42:46;2.97;;;1.50;;
66421;SDS011;53228;51.380;0.098;2024-01-30T12:45:17;1.70;;;1.40;;
66421;SDS011;53228;51.380;0.098;2024-01-30T12:47:50;6.95;;;1.40;;
66421;SDS011;53228;51.380;0.098;2024-01-30T12:50:18;2.90;;;1.52;;
66421;SDS011;53228;51.380;0.098;2024-01-30T12:52:46;3.67;;;1.45;;
66421;SDS011;53228;51.380;0.098;2024-01-30T12:55:16;9.55;;;2.42;;
66421;SDS011;53228;51.380;0.098;2024-01-30T12:57:45;5.65;;;1.80;;
66421;SDS011;53228;51.380;0.098;2024-01-30T13:00:13;4.68;;;1.90;;
66421;SDS011;53228;51.380;0.098;2024-01-30T13:02:44;3.58;;;1.40;;
66421;SDS011;53228;51.380;0.098;2024-01-30T13:05:12;3.15;;;1.38;;
66421;SDS011;53228;51.380;0.098;2024-01-30T13:07:40;8.73;;;2.88;;
66421;SDS011;53228;51.380;0.098;2024-01-30T13:10:07;7.45;;;2.60;;
66421;SDS011;53228;51.380;0.098;2024-01-30T13:12:35;11.73;;;4.20;;
66421;SDS011;53228;51.380;0.098;2024-01-30T13:15:04;13.57;;;3.97;;
66421;SDS011;53228;51.380;0.098;2024-01-30T13:17:32;5.45;;;2.60;;
66421;SDS011;53228;51.380;0.098;2024-01-30T13:20:00;7.60;;;3.22;;
66421;SDS011;53228;51.380;0.098;2024-01-30T13:22:37;15.15;;;3.83;;
66421;SDS011;53228;51.380;0.098;2024-01-30T13:25:06;14.88;;;4.07;;
66421;SDS011;53228;51.380;0.098;2024-01-30T13:27:36;10.50;;;3.20;;
66421;SDS011;53228;51.380;0.098;2024-01-30T13:30:06;10.77;;;2.95;;
66421;SDS011;53228;51.380;0.098;2024-01-30T13:32:35;8.43;;;3.25;;
66421;SDS011;53228;51.380;0.098;2024-01-30T13:35:03;12.13;;;3.95;;
66421;SDS011;53228;51.380;0.098;2024-01-30T13:37:31;4.30;;;2.40;;
66421;SDS011;53228;51.380;0.098;2024-01-30T13:39:59;6.68;;;2.70;;
66421;SDS011;53228;51.380;0.098;2024-01-30T13:42:30;6.55;;;2.60;;
66421;SDS011;53228;51.380;0.098;2024-01-30T13:44:58;7.68;;;2.58;;
66421;SDS011;53228;51.380;0.098;2024-01-30T13:47:26;6.05;;;2.60;;
66421;SDS011;53228;51.380;0.098;2024-01-30T13:49:54;8.63;;;3.00;;
66421;SDS011;53228;51.380;0.098;2024-01-30T13:52:21;5.50;;;2.75;;
66421;SDS011;53228;51.380;0.098;2024-01-30T13:54:57;7.38;;;2.95;;
66421;SDS011;53228;51.380;0.098;2024-01-30T13:57:25;4.82;;;2.30;;
66421;SDS011;53228;51.380;0.098;2024-01-30T13:59:53;4.72;;;2.50;;
66421;SDS011;53228;51.380;0.098;2024-01-30T14:02:20;2.25;;;1.17;;
66421;SDS011;53228;51.380;0.098;2024-01-30T14:04:48;5.25;;;2.53;;
66421;SDS011;53228;51.380;0.098;2024-01-30T14:07:16;5.75;;;1.40;;
66421;SDS011;53228;51.380;0.098;2024-01-30T14:09:45;7.60;;;1.33;;
66421;SDS011;53228;51.380;0.098;2024-01-30T14:12:14;3.03;;;1.17;;
66421;SDS011;53228;51.380;0.098;2024-01-30T14:14:42;4.13;;;1.40;;
66421;SDS011;53228;51.380;0.098;2024-01-30T14:17:10;3.45;;;1.05;;
66421;SDS011;53228;51.380;0.098;2024-01-30T14:19:37;7.10;;;1.05;;
66421;SDS011;53228;51.380;0.098;2024-01-30T14:22:06;2.92;;;1.75;;
66421;SDS011;53228;51.380;0.098;2024-01-30T14:24:34;3.55;;;1.38;;
66421;SDS011;53228;51.380;0.098;2024-01-30T14:27:04;4.40;;;1.33;;
66421;SDS011;53228;51.380;0.098;2024-01-30T14:29:32;2.53;;;0.75;;
66421;SDS011;53228;51.380;0.098;2024-01-30T14:32:00;1.95;;;1.17;;
66421;SDS011;53228;51.380;0.098;2024-01-30T14:34:27;3.78;;;1.10;;
66421;SDS011;53228;51.380;0.098;2024-01-30T14:36:55;5.55;;;1.10;;
66421;SDS011;53228;51.380;0.098;2024-01-30T14:39:23;4.47;;;1.15;;
66421;SDS011;53228;51.380;0.098;2024-01-30T14:41:51;2.80;;;0.88;;
66421;SDS011;53228;51.380;0.098;2024-01-30T14:44:19;4.88;;;1.80;;
66421;SDS011;53228;51.380;0.098;2024-01-30T14:46:46;3.83;;;1.75;;
66421;SDS011;53228;51.380;0.098;2024-01-30T14:49:15;3.20;;;1.33;;
66421;SDS011;53228;51.380;0.098;2024-01-30T14:51:43;3.97;;;2.38;;
66421;SDS011;53228;51.380;0.098;2024-01-30T14:54:10;2.55;;;1.85;;
66421;SDS011;53228;51.380;0.098;2024-01-30T14:56:38;7.97;;;1.83;;
66421;SDS011;53228;51.380;0.098;2024-01-30T14:59:06;4.65;;;1.85;;
66421;SDS011;53228;51.380;0.098;2024-01-30T15:01:33;2.92;;;1.50;;